WetterOnline ( http://www.wetteronline.de )

Wetter aktuell Jessen (Elster)

Aktuelles Wetter: Wittenberg (106m)

6-stündlich | Neueste Meldungen
Ortszeit Temperatur Wetter
Fr, 19.10. 2:00 12.0° C bedeckt
Do, 18.10. 20:00 13.1° C bedeckt
Do, 18.10. 14:00 12.4° C bedeckt
Do, 18.10. 8:00 6.1° C leicht bewölkt
Do, 18.10. 2:00 8.5° C leicht bewölkt
Mi, 17.10. 20:00 14.3° C wolkenlos
Mi, 17.10. 14:00 19.4° C wolkenlos
Mi, 17.10. 8:00 8.1° C wolkig
Ortszeit Temperatur Wetter
Fr, 19.10. 7:00 9.4° C bedeckt
Fr, 19.10. 6:50 9.4° C bedeckt
Fr, 19.10. 6:40 9.5° C bedeckt
Fr, 19.10. 6:30 9.5° C bedeckt
Fr, 19.10. 6:20 9.5° C bedeckt
Fr, 19.10. 6:10 9.5° C bedeckt
Fr, 19.10. 6:00 9.0° C bewölkt
Fr, 19.10. 5:30 8.9° C fast wolkenlos
Fr, 19.10. 5:00 9.3° C wolkenlos
Fr, 19.10. 4:30 10.1° C leicht bewölkt
Fr, 19.10. 4:00 11.0° C bedeckt
Ortszeit Relative Feuchte Sichtweite
Fr, 19.10. 2:00 81% 28 km
Do, 18.10. 20:00 92% 4.4 km
Do, 18.10. 14:00 86% 5.0 km
Do, 18.10. 8:00 94% 2.0 km
Do, 18.10. 2:00 90% 2.7 km
Mi, 17.10. 20:00 70% 8 km
Mi, 17.10. 14:00 49% 9 km
Mi, 17.10. 8:00 91% 4.9 km
Ortszeit Relative Feuchte Sichtweite
Fr, 19.10. 7:00 82% 50 km
Fr, 19.10. 6:50 82% -
Fr, 19.10. 6:40 82% -
Fr, 19.10. 6:30 83% 45 km
Fr, 19.10. 6:20 83% -
Fr, 19.10. 6:10 83% -
Fr, 19.10. 6:00 86% 35 km
Fr, 19.10. 5:30 86% 35 km
Fr, 19.10. 5:00 84% 40 km
Fr, 19.10. 4:30 81% 35 km
Fr, 19.10. 4:00 82% 30 km
Ortszeit Niederschlagsmenge Niederschlagsart
Fr, 19.10. 2:00 0.0 l/m2 in 6 Std. -
Do, 18.10. 20:00 0.0 l/m2 in 12 Std. -
Do, 18.10. 14:00 0.0 l/m2 in 6 Std. -
Do, 18.10. 8:00 0.0 l/m2 in 12 Std. -
Do, 18.10. 2:00 0.0 l/m2 in 6 Std. -
Mi, 17.10. 20:00 0.0 l/m2 in 12 Std. -
Mi, 17.10. 14:00 0.0 l/m2 in 6 Std. -
Mi, 17.10. 8:00 0.0 l/m2 in 12 Std. -
Ortszeit Niederschlagsmenge Niederschlagsart
Fr, 19.10. 7:00 0.0 l/m2 in 1 Std. -
Fr, 19.10. 6:50 keine Meldung -
Fr, 19.10. 6:40 keine Meldung -
Fr, 19.10. 6:30 0.0 l/m2 in 1 Std. -
Fr, 19.10. 6:20 keine Meldung -
Fr, 19.10. 6:10 keine Meldung -
Fr, 19.10. 6:00 0.0 l/m2 in 1 Std. -
Fr, 19.10. 5:30 0.0 l/m2 in 1 Std. -
Fr, 19.10. 5:00 0.0 l/m2 in 1 Std. -
Fr, 19.10. 4:30 0.0 l/m2 in 1 Std. -
Fr, 19.10. 4:00 0.0 l/m2 in 1 Std. -
Ortszeit Stärke Spitze Richtung
km/h Bft. km/h Grad Sektor
Fr, 19.10. 2:00 13 3 33 20° N
Do, 18.10. 20:00 9 2 20 340° N
Do, 18.10. 14:00 14 3 29 330° NW
Do, 18.10. 8:00 4 1 11 260° W
Do, 18.10. 2:00 0 0 11 - -
Mi, 17.10. 20:00 7 2 11 70° O
Mi, 17.10. 14:00 4 1 11 130° SO
Mi, 17.10. 8:00 4 1 7 350° N
Ortszeit Stärke Spitze Richtung
km/h Bft. km/h Grad Sektor
Fr, 19.10. 7:00 11 2 18 350° N
Fr, 19.10. 6:50 11 2 - 350° N
Fr, 19.10. 6:40 13 3 - 350° N
Fr, 19.10. 6:30 9 2 17 360° N
Fr, 19.10. 6:20 9 2 - 360° N
Fr, 19.10. 6:10 9 2 - 350° N
Fr, 19.10. 6:00 7 2 11 360° N
Fr, 19.10. 5:30 7 2 11 350° N
Fr, 19.10. 5:00 7 2 18 340° N
Fr, 19.10. 4:30 9 2 19 350° N
Fr, 19.10. 4:00 7 2 18 350° N
Ortszeit Untergrenze Bedeckung Gattung
total tief tief mittel hoch
Fr, 19.10. 2:00 1200 m 8/8 8/8 - - -
Do, 18.10. 20:00 180 m 8/8 8/8 - - -
Do, 18.10. 14:00 150 m 8/8 8/8 - - -
Do, 18.10. 8:00 6000 m 3/8 3/8 - - -
Do, 18.10. 2:00 9000 m 5/8 0/8 - - -
Mi, 17.10. 20:00 - 0/8 0/8 - - -
Mi, 17.10. 14:00 - 0/8 0/8 - - -
Mi, 17.10. 8:00 2700 m 6/8 6/8 - - -
Ortszeit Bedeckungsgrad in Achtel und Wolkenuntergrenze
Fr, 19.10. 7:00 8(1230m)
Fr, 19.10. 6:50 8(1230m)
Fr, 19.10. 6:40 8(1200m)
Fr, 19.10. 6:30 8(1170m)
Fr, 19.10. 6:20 8(1170m)
Fr, 19.10. 6:10 8(1170m)
Fr, 19.10. 6:00 7(1200m)
Fr, 19.10. 5:30 2(1200m)
Fr, 19.10. 5:00 keine Wolken
Fr, 19.10. 4:30 2(1260m)
Fr, 19.10. 4:00 1(360m) 8(1200m)
Ortszeit Luftdruck NN (hPa) Tendenz (hPa in 3 Std.)
Fr, 19.10. 2:00 1024 + 0,4
Do, 18.10. 20:00 1023 + 0,9
Do, 18.10. 14:00 1022 + 0,6
Do, 18.10. 8:00 1021 + 0,9
Do, 18.10. 2:00 1020 - 0,2
Mi, 17.10. 20:00 1019 + 0,5
Mi, 17.10. 14:00 1019 - 0,8
Mi, 17.10. 8:00 1020 + 0,5
Ortszeit Luftdruck NN (hPa) Tendenz (hPa in 3 Std.)
Fr, 19.10. 7:00 1025 + 0,3
Fr, 19.10. 6:50 1025 keine Meldung
Fr, 19.10. 6:40 1025 keine Meldung
Fr, 19.10. 6:30 1025 + 0,6
Fr, 19.10. 6:20 1025 keine Meldung
Fr, 19.10. 6:10 1025 keine Meldung
Fr, 19.10. 6:00 1025 + 0,4
Fr, 19.10. 5:30 1025 + 0,2
Fr, 19.10. 5:00 1025 + 0,1
Fr, 19.10. 4:30 1024 0,0
Fr, 19.10. 4:00 1024 - 0,2
Ortszeit Schneehöhe (cm)
Fr, 19.10. 2:00 0
Do, 18.10. 20:00 0
Do, 18.10. 14:00 0
Do, 18.10. 8:00 0
Do, 18.10. 2:00 0
Mi, 17.10. 20:00 0
Mi, 17.10. 14:00 0
Mi, 17.10. 8:00 0
Ortszeit Schneehöhe (cm)
Fr, 19.10. 7:00 0
Fr, 19.10. 6:50 0
Fr, 19.10. 6:40 0
Fr, 19.10. 6:30 0
Fr, 19.10. 6:20 0
Fr, 19.10. 6:10 0
Fr, 19.10. 6:00 0
Fr, 19.10. 5:30 0
Fr, 19.10. 5:00 0
Fr, 19.10. 4:30 0
Fr, 19.10. 4:00 0
Link zu dieser Seite / Seite empfehlen

Das Wetter in ...